createdAt,value
2019-04-25T00:02:03.105Z,95000.49
2019-04-25T00:04:51.519Z,94993.22
2019-04-25T00:07:38.773Z,95013.52
2019-04-25T00:10:26.435Z,95003.81
2019-04-25T00:13:14.015Z,95020.05
2019-04-25T00:16:01.916Z,95025.31
2019-04-25T00:18:49.582Z,95019.24
2019-04-25T00:21:44.448Z,95030.86
2019-04-25T00:24:39.735Z,95011.69
2019-04-25T00:27:27.785Z,95015.30
2019-04-25T00:30:15.320Z,95024.76
2019-04-25T00:33:02.912Z,95006.28
2019-04-25T00:35:51.679Z,95011.24
2019-04-25T00:38:39.601Z,95012.72
2019-04-25T00:41:27.144Z,95010.22
2019-04-25T00:44:14.706Z,95010.45
2019-04-25T00:47:02.599Z,94997.94
2019-04-25T00:49:50.170Z,95013.37
2019-04-25T00:52:38.209Z,95005.95
2019-04-25T00:55:28.812Z,95003.02
2019-04-25T00:58:22.811Z,95013.50
2019-04-25T01:01:24.128Z,95001.44
2019-04-25T01:04:12.258Z,94999.91
2019-04-25T01:07:01.394Z,95004.42
2019-04-25T01:09:49.909Z,95007.36
2019-04-25T01:12:37.876Z,95007.33
2019-04-25T01:15:25.462Z,95008.97
2019-04-25T01:18:12.725Z,95002.82
2019-04-25T01:21:00.224Z,95014.28
2019-04-25T01:23:47.965Z,95015.98
2019-04-25T01:26:35.676Z,95027.13
2019-04-25T01:29:23.515Z,95018.65
2019-04-25T01:32:13.963Z,95021.06
2019-04-25T01:35:08.570Z,95017.02
2019-04-25T01:38:21.631Z,95021.03
2019-04-25T01:41:26.570Z,95020.27
2019-04-25T01:44:21.694Z,95026.70
2019-04-25T01:47:08.813Z,95027.78
2019-04-25T01:49:56.867Z,95021.73
2019-04-25T01:52:44.565Z,95019.02
2019-04-25T01:55:33.538Z,95029.75
2019-04-25T01:58:21.469Z,95018.18
2019-04-25T02:01:09.092Z,95020.98
2019-04-25T02:03:56.992Z,95015.94
2019-04-25T02:06:44.745Z,95028.33
2019-04-25T02:09:33.689Z,95030.34
2019-04-25T02:12:29.350Z,95023.13
2019-04-25T02:15:18.984Z,95021.00
2019-04-25T02:18:06.374Z,95037.20
2019-04-25T02:20:56.595Z,95038.03
2019-04-25T02:23:44.223Z,95047.34
2019-04-25T02:26:31.966Z,95049.00
2019-04-25T02:29:19.718Z,95037.94
2019-04-25T02:32:09.070Z,95038.59
2019-04-25T02:35:00.541Z,95044.22
2019-04-25T02:37:45.631Z,95050.27
2019-04-25T02:40:33.854Z,95046.77
2019-04-25T02:43:23.777Z,95034.69
2019-04-25T02:46:30.959Z,95038.62
2019-04-25T02:49:39.718Z,95036.86
2019-04-25T02:52:36.966Z,95031.02
2019-04-25T02:55:31.888Z,95029.28
2019-04-25T02:58:14.193Z,95036.95
2019-04-25T03:01:14.320Z,95028.27
2019-04-25T03:03:54.600Z,95025.64
2019-04-25T03:06:44.892Z,95025.22
2019-04-25T03:09:31.574Z,95033.91
2019-04-25T03:12:32.416Z,95032.94
2019-04-25T03:15:10.255Z,95038.38
2019-04-25T03:17:58.702Z,95029.16
2019-04-25T03:20:55.455Z,95035.61
2019-04-25T03:23:46.164Z,95024.56
2019-04-25T03:26:39.870Z,95028.43
2019-04-25T03:29:21.827Z,95028.66
2019-04-25T03:32:13.697Z,95021.23
2019-04-25T03:34:58.817Z,95009.55
2019-04-25T03:37:46.330Z,95023.11
2019-04-25T03:40:34.023Z,95017.78
2019-04-25T03:43:23.266Z,95009.03
2019-04-25T03:46:10.989Z,94995.80
2019-04-25T03:48:58.578Z,95000.28
2019-04-25T03:51:46.463Z,95008.37
2019-04-25T03:54:33.794Z,95000.31
2019-04-25T03:57:20.889Z,94992.30
2019-04-25T04:00:08.810Z,94997.41
2019-04-25T04:02:56.101Z,94995.57
2019-04-25T04:05:44.098Z,94992.44
2019-04-25T04:08:31.383Z,94982.53
2019-04-25T04:11:19.452Z,94980.48
2019-04-25T04:14:07.099Z,94974.97
2019-04-25T04:17:29.344Z,94966.21
2019-04-25T04:20:36.647Z,94967.67
2019-04-25T04:23:36.634Z,94981.64
2019-04-25T04:26:24.429Z,94982.98
2019-04-25T04:29:13.578Z,94994.14
2019-04-25T04:32:01.210Z,94987.73
2019-04-25T04:34:48.514Z,95003.94
2019-04-25T04:37:36.050Z,94999.73
2019-04-25T04:40:24.282Z,95001.86
2019-04-25T04:43:11.766Z,95004.05
2019-04-25T04:45:59.124Z,95010.38
2019-04-25T04:48:46.853Z,95020.52
2019-04-25T04:51:34.245Z,95015.28
2019-04-25T04:54:23.051Z,95030.48
2019-04-25T04:57:23.169Z,95031.05
2019-04-25T04:59:59.651Z,95029.62
2019-04-25T05:02:59.195Z,95044.78
2019-04-25T05:06:01.813Z,95045.70
2019-04-25T05:08:53.243Z,95042.19
2019-04-25T05:11:41.392Z,95049.05
2019-04-25T05:14:29.347Z,95048.29
2019-04-25T05:17:17.622Z,95045.70
2019-04-25T05:20:05.579Z,95044.06
2019-04-25T05:22:54.964Z,95039.89
2019-04-25T05:25:44.233Z,95042.13
2019-04-25T05:28:33.331Z,95045.17
2019-04-25T05:31:36.277Z,95052.06
2019-04-25T05:34:25.631Z,95046.50
2019-04-25T05:37:14.382Z,95034.73
2019-04-25T05:40:03.452Z,95046.23
2019-04-25T05:42:58.016Z,95041.66
2019-04-25T05:45:45.957Z,95044.36
2019-04-25T05:48:34.052Z,95040.20
2019-04-25T05:51:23.649Z,95037.11
2019-04-25T05:54:11.423Z,95049.92
2019-04-25T05:56:59.075Z,95054.28
2019-04-25T05:59:46.829Z,95034.27
2019-04-25T06:02:34.665Z,95047.40
2019-04-25T06:05:23.423Z,95050.61
2019-04-25T06:08:17.484Z,95057.99
2019-04-25T06:11:23.924Z,95056.57
2019-04-25T06:14:13.625Z,95039.89
2019-04-25T06:17:04.537Z,95040.42
2019-04-25T06:19:53.659Z,95038.16
2019-04-25T06:22:53.482Z,95043.25
2019-04-25T06:25:43.795Z,95050.58
2019-04-25T06:28:34.564Z,95052.13
2019-04-25T06:31:21.887Z,95051.84
2019-04-25T06:34:09.441Z,95051.12
2019-04-25T06:36:56.930Z,95055.13
2019-04-25T06:39:44.760Z,95045.75
2019-04-25T06:42:34.558Z,95050.44
2019-04-25T06:45:34.571Z,95051.16
2019-04-25T06:48:41.169Z,95039.59
2019-04-25T06:51:46.923Z,95042.89
2019-04-25T06:54:35.259Z,95029.55
2019-04-25T06:57:24.434Z,95040.58
2019-04-25T07:00:14.876Z,95029.98
2019-04-25T07:03:04.281Z,95033.53
2019-04-25T07:05:53.530Z,95017.77
2019-04-25T07:08:41.214Z,95006.75
2019-04-25T07:11:30.392Z,95014.59
2019-04-25T07:14:18.104Z,95015.42
2019-04-25T07:17:06.014Z,95008.77
2019-04-25T07:19:54.180Z,95007.22
2019-04-25T07:22:41.784Z,95018.49
2019-04-25T07:25:31.980Z,95014.47
2019-04-25T07:28:50.702Z,95010.09
2019-04-25T07:32:15.741Z,95013.75
2019-04-25T07:35:03.738Z,95003.55
2019-04-25T07:37:51.352Z,94998.45
2019-04-25T07:40:40.301Z,95004.57
2019-04-25T07:43:28.154Z,95011.20
2019-04-25T07:46:15.634Z,95000.42
2019-04-25T07:49:03.439Z,95004.61
2019-04-25T07:51:50.669Z,94991.03
2019-04-25T07:54:38.642Z,94992.30
2019-04-25T07:57:26.799Z,94993.99
2019-04-25T08:00:15.912Z,94987.96
2019-04-25T08:03:04.040Z,94986.89
2019-04-25T08:05:51.389Z,94983.20
2019-04-25T08:08:38.914Z,94975.91
2019-04-25T08:11:26.291Z,94972.28
2019-04-25T08:14:35.753Z,94981.97
2019-04-25T08:17:41.081Z,94989.20
2019-04-25T08:20:29.263Z,94982.83
2019-04-25T08:23:17.082Z,94974.30
2019-04-25T08:26:04.874Z,94979.00
2019-04-25T08:28:57.480Z,94984.34
2019-04-25T08:31:45.321Z,94974.39
2019-04-25T08:34:34.813Z,94970.05
2019-04-25T08:37:24.084Z,94969.17
2019-04-25T08:40:13.584Z,94957.25
2019-04-25T08:43:01.103Z,94957.61
2019-04-25T08:45:48.894Z,94957.52
2019-04-25T08:48:55.593Z,94959.91
2019-04-25T08:51:44.460Z,94956.13
2019-04-25T08:54:41.479Z,94952.33
2019-04-25T08:57:45.560Z,94964.60
2019-04-25T09:00:59.338Z,94941.09
2019-04-25T09:03:49.354Z,94944.88
2019-04-25T09:06:38.607Z,94944.75
2019-04-25T09:09:26.433Z,94949.50
2019-04-25T09:12:14.499Z,94947.83
2019-04-25T09:15:04.079Z,94943.86
2019-04-25T09:17:54.297Z,94948.11
2019-04-25T09:20:43.047Z,94943.17
2019-04-25T09:23:30.690Z,94936.28
2019-04-25T09:26:18.206Z,94935.54
2019-04-25T09:29:16.903Z,94934.50
2019-04-25T09:31:55.071Z,94932.97
2019-04-25T09:34:43.727Z,94924.78
2019-04-25T09:37:31.589Z,94931.55
2019-04-25T09:40:19.520Z,94921.70
2019-04-25T09:43:07.120Z,94912.52
2019-04-25T09:46:06.466Z,94906.09
2019-04-25T09:49:04.152Z,94903.02
2019-04-25T09:52:13.706Z,94898.98
2019-04-25T09:55:22.289Z,94891.88
2019-04-25T09:58:16.271Z,94901.81
2019-04-25T10:01:09.377Z,94896.20
2019-04-25T10:03:56.785Z,94901.30
2019-04-25T10:06:45.043Z,94886.77
2019-04-25T10:09:33.834Z,94887.04
2019-04-25T10:12:23.131Z,94889.62
2019-04-25T10:15:25.738Z,94887.13
2019-04-25T10:18:14.476Z,94891.70
2019-04-25T10:21:04.255Z,94881.33
2019-04-25T10:23:53.467Z,94890.45
2019-04-25T10:26:41.594Z,94892.55
2019-04-25T10:29:39.348Z,94896.42
2019-04-25T10:32:18.682Z,94895.36
2019-04-25T10:35:07.730Z,94883.09
2019-04-25T10:37:55.789Z,94888.69
2019-04-25T10:40:46.138Z,94889.58
2019-04-25T10:43:34.661Z,94898.34
2019-04-25T10:46:24.315Z,94880.20
2019-04-25T10:49:11.836Z,94880.48
2019-04-25T10:51:59.329Z,94889.84
2019-04-25T10:54:47.896Z,94882.88
2019-04-25T10:57:35.937Z,94895.92
2019-04-25T11:00:30.875Z,94885.90
2019-04-25T11:03:56.013Z,94881.76
2019-04-25T11:06:45.473Z,94883.12
2019-04-25T11:09:34.277Z,94872.19
2019-04-25T11:12:23.483Z,94873.13
2019-04-25T11:15:11.610Z,94877.27
2019-04-25T11:17:59.216Z,94870.96
2019-04-25T11:20:46.641Z,94871.28
2019-04-25T11:23:35.052Z,94865.83
2019-04-25T11:26:22.849Z,94866.33
2019-04-25T11:29:10.816Z,94860.00
2019-04-25T11:31:58.233Z,94856.97
2019-04-25T11:34:47.224Z,94861.56
2019-04-25T11:37:35.377Z,94862.16
2019-04-25T11:40:48.125Z,94864.23
2019-04-25T11:43:35.738Z,94855.06
2019-04-25T11:46:24.206Z,94856.23
2019-04-25T11:49:13.129Z,94861.59
2019-04-25T11:54:30.425Z,94854.94
2019-04-25T11:57:17.665Z,94866.69
2019-04-25T12:00:06.366Z,94861.00
2019-04-25T12:02:54.954Z,94862.77
2019-04-25T12:05:45.580Z,94856.78
2019-04-25T12:08:33.485Z,94858.09
2019-04-25T12:11:20.967Z,94862.29
2019-04-25T12:14:08.756Z,94855.34
2019-04-25T12:16:56.338Z,94855.47
2019-04-25T12:19:44.226Z,94854.58
2019-04-25T12:22:34.324Z,94853.61
2019-04-25T12:25:21.791Z,94862.05
2019-04-25T12:28:09.628Z,94849.70
2019-04-25T12:30:57.602Z,94849.97
2019-04-25T12:33:47.642Z,94857.84
2019-04-25T12:36:34.329Z,94843.59
2019-04-25T12:39:24.151Z,94857.03
2019-04-25T12:42:11.518Z,94856.94
2019-04-25T12:45:21.101Z,94858.08
2019-04-25T12:48:14.517Z,94855.64
2019-04-25T12:51:03.231Z,94858.08
2019-04-25T12:53:51.402Z,94855.83
2019-04-25T12:56:38.834Z,94855.63
2019-04-25T12:59:26.687Z,94865.56
2019-04-25T13:02:14.744Z,94867.73
2019-04-25T13:05:05.515Z,94863.77
2019-04-25T13:07:55.989Z,94865.74
2019-04-25T13:10:41.550Z,94861.66
2019-04-25T13:13:28.892Z,94868.44
2019-04-25T13:16:16.356Z,94864.70
2019-04-25T13:19:12.678Z,94862.70
2019-04-25T13:21:54.393Z,94870.58
2019-04-25T13:24:41.914Z,94867.73
2019-04-25T13:27:35.426Z,94871.45
2019-04-25T13:31:01.534Z,94866.08
2019-04-25T13:34:04.624Z,94863.67
2019-04-25T13:36:52.171Z,94863.80
2019-04-25T13:39:39.888Z,94868.11
2019-04-25T13:42:27.577Z,94869.68
2019-04-25T13:45:15.989Z,94858.27
2019-04-25T13:48:04.970Z,94866.83
2019-04-25T13:50:54.027Z,94856.65
2019-04-25T13:53:44.856Z,94864.83
2019-04-25T13:56:38.993Z,94870.68
2019-04-25T13:59:23.484Z,94869.97
2019-04-25T14:02:11.565Z,94867.97
2019-04-25T14:04:59.068Z,94860.80
2019-04-25T14:07:46.709Z,94860.89
2019-04-25T14:10:34.674Z,94862.27
2019-04-25T14:13:25.125Z,94859.06
2019-04-25T14:16:25.371Z,94844.91
2019-04-25T14:19:29.540Z,94847.66
2019-04-25T14:22:17.725Z,94847.57
2019-04-25T14:25:06.804Z,94836.25
2019-04-25T14:27:54.506Z,94847.66
2019-04-25T14:30:43.460Z,94840.37
2019-04-25T14:33:31.437Z,94840.56
2019-04-25T14:36:19.209Z,94840.83
2019-04-25T14:39:09.723Z,94834.69
2019-04-25T14:41:57.338Z,94831.36
2019-04-25T14:44:45.887Z,94832.01
2019-04-25T14:47:34.936Z,94824.84
2019-04-25T14:50:23.242Z,94831.02
2019-04-25T14:53:11.858Z,94829.47
2019-04-25T14:56:11.586Z,94836.23
2019-04-25T14:58:59.217Z,94832.81
2019-04-25T15:01:47.413Z,94828.81
2019-04-25T15:04:35.308Z,94824.85
2019-04-25T15:07:24.427Z,94828.98
2019-04-25T15:10:12.369Z,94831.53
2019-04-25T15:13:00.350Z,94828.69
2019-04-25T15:15:49.875Z,94838.34
2019-04-25T15:18:46.567Z,94824.29
2019-04-25T15:21:28.140Z,94827.22
2019-04-25T15:24:18.785Z,94825.56
2019-04-25T15:27:06.448Z,94826.81
2019-04-25T15:29:53.997Z,94821.20
2019-04-25T15:32:41.458Z,94814.41
2019-04-25T15:35:35.192Z,94814.20
2019-04-25T15:38:29.779Z,94815.34
2019-04-25T15:41:35.978Z,94818.62
2019-04-25T15:44:47.545Z,94821.55
2019-04-25T15:47:36.326Z,94815.04
2019-04-25T15:50:23.798Z,94826.05
2019-04-25T15:53:11.536Z,94822.50
2019-04-25T15:55:59.130Z,94829.32
2019-04-25T15:58:46.245Z,94815.27
2019-04-25T16:01:34.593Z,94814.19
2019-04-25T16:04:22.100Z,94813.44
2019-04-25T16:07:09.889Z,94810.95
2019-04-25T16:09:57.387Z,94805.27
2019-04-25T16:12:45.003Z,94808.34
2019-04-25T16:15:33.211Z,94807.28
2019-04-25T16:18:21.153Z,94812.83
2019-04-25T16:21:08.828Z,94814.03
2019-04-25T16:23:56.568Z,94810.56
2019-04-25T16:26:44.208Z,94810.51
2019-04-25T16:29:31.809Z,94808.45
2019-04-25T16:32:21.895Z,94805.16
2019-04-25T16:35:12.658Z,94804.72
2019-04-25T16:38:02.554Z,94804.80
2019-04-25T16:40:50.001Z,94805.93
2019-04-25T16:43:44.375Z,94807.12
2019-04-25T16:46:32.313Z,94814.12
2019-04-25T16:49:21.469Z,94796.80
2019-04-25T16:52:10.599Z,94799.82
2019-04-25T16:54:58.221Z,94796.38
2019-04-25T16:57:45.785Z,94803.55
2019-04-25T17:00:42.948Z,94803.19
2019-04-25T17:03:31.460Z,94797.61
2019-04-25T17:06:18.963Z,94795.23
2019-04-25T17:09:07.223Z,94794.08
2019-04-25T17:11:56.920Z,94791.33
2019-04-25T17:15:06.396Z,94799.72
2019-04-25T17:18:19.321Z,94790.09
2019-04-25T17:21:11.610Z,94783.44
2019-04-25T17:23:58.166Z,94795.70
2019-04-25T17:26:46.020Z,94793.63
2019-04-25T17:29:34.595Z,94792.06
2019-04-25T17:32:30.688Z,94791.22
2019-04-25T17:35:29.359Z,94789.11
2019-04-25T17:38:21.137Z,94797.30
2019-04-25T17:41:08.377Z,94803.37
2019-04-25T17:43:56.120Z,94802.06
2019-04-25T17:46:44.086Z,94795.66
2019-04-25T17:49:32.864Z,94790.25
2019-04-25T17:52:20.417Z,94793.02
2019-04-25T17:55:08.547Z,94791.33
2019-04-25T17:57:56.051Z,94789.30
2019-04-25T18:00:45.490Z,94789.00
2019-04-25T18:03:37.247Z,94797.34
2019-04-25T18:06:24.977Z,94800.09
2019-04-25T18:09:12.888Z,94804.47
2019-04-25T18:12:00.602Z,94818.39
2019-04-25T18:14:48.639Z,94830.00
2019-04-25T18:17:36.195Z,94847.57
2019-04-25T18:20:25.788Z,94859.80
2019-04-25T18:23:23.933Z,94868.62
2019-04-25T18:26:18.970Z,94878.44
2019-04-25T18:29:09.812Z,94896.50
2019-04-25T18:31:57.788Z,94904.96
2019-04-25T18:34:51.624Z,94915.23
2019-04-25T18:38:01.331Z,94926.38
2019-04-25T18:41:08.109Z,94939.46
2019-04-25T18:43:57.664Z,94938.46
2019-04-25T18:46:47.275Z,94940.44
2019-04-25T18:49:37.204Z,94939.82
2019-04-25T18:52:50.815Z,94932.56
2019-04-25T18:56:03.854Z,94952.95
2019-04-25T18:59:10.613Z,94951.84
2019-04-25T19:02:18.540Z,94937.28
2019-04-25T19:05:28.519Z,94943.28
2019-04-25T19:08:15.952Z,94952.27
2019-04-25T19:11:04.042Z,94950.72
2019-04-25T19:13:51.965Z,94960.23
2019-04-25T19:16:40.903Z,94963.55
2019-04-25T19:19:29.132Z,94977.81
2019-04-25T19:22:16.611Z,94972.10
2019-04-25T19:25:04.690Z,94977.44
2019-04-25T19:27:52.645Z,94972.33
2019-04-25T19:30:41.057Z,94973.34
2019-04-25T19:33:35.661Z,94979.16
2019-04-25T19:36:19.326Z,94994.16
2019-04-25T19:39:07.709Z,95001.53
2019-04-25T19:42:21.122Z,94997.78
2019-04-25T19:45:09.808Z,95001.09
2019-04-25T19:47:57.529Z,95010.86
2019-04-25T19:50:45.945Z,95032.99
2019-04-25T19:53:33.568Z,95041.53
2019-04-25T19:56:21.520Z,95044.64
2019-04-25T19:59:09.634Z,95034.78
2019-04-25T20:02:00.168Z,95036.30
2019-04-25T20:04:55.559Z,95027.62
2019-04-25T20:07:57.364Z,95021.42
2019-04-25T20:10:51.421Z,95026.41
2019-04-25T20:13:38.897Z,95034.50
2019-04-25T20:16:28.713Z,95056.58
2019-04-25T20:19:16.408Z,95055.98
2019-04-25T20:22:05.013Z,95073.84
2019-04-25T20:24:53.126Z,95091.17
2019-04-25T20:27:41.114Z,95094.27
2019-04-25T20:30:28.287Z,95093.78
2019-04-25T20:33:16.061Z,95083.96
2019-04-25T20:36:04.058Z,95085.78
2019-04-25T20:38:53.138Z,95091.45
2019-04-25T20:41:41.094Z,95099.03
2019-04-25T20:44:28.805Z,95106.04
2019-04-25T20:47:16.459Z,95102.75
2019-04-25T20:50:05.007Z,95106.73
2019-04-25T20:52:52.848Z,95118.11
2019-04-25T20:55:40.901Z,95113.89
2019-04-25T20:58:28.677Z,95110.95
2019-04-25T21:01:16.592Z,95117.53
2019-04-25T21:04:13.025Z,95135.17
2019-04-25T21:06:54.733Z,95141.28
2019-04-25T21:09:42.624Z,95136.22
2019-04-25T21:12:31.467Z,95134.98
2019-04-25T21:15:33.353Z,95153.47
2019-04-25T21:18:43.112Z,95146.25
2019-04-25T21:21:31.331Z,95139.95
2019-04-25T21:24:19.265Z,95142.20
2019-04-25T21:27:06.928Z,95134.52
2019-04-25T21:29:55.556Z,95137.89
2019-04-25T21:32:53.760Z,95140.86
2019-04-25T21:35:41.964Z,95152.11
2019-04-25T21:38:29.484Z,95153.50
2019-04-25T21:41:54.411Z,95160.23
2019-04-25T21:44:42.182Z,95160.50
2019-04-25T21:47:31.270Z,95190.25
2019-04-25T21:50:19.350Z,95191.39
2019-04-25T21:53:07.128Z,95187.31
2019-04-25T21:55:55.294Z,95197.59
2019-04-25T21:58:43.061Z,95184.86
2019-04-25T22:01:36.783Z,95183.70
2019-04-25T22:04:24.368Z,95180.78
2019-04-25T22:07:12.391Z,95188.00
2019-04-25T22:10:00.344Z,95194.99
2019-04-25T22:12:48.205Z,95201.87
2019-04-25T22:15:36.250Z,95198.38
2019-04-25T22:18:24.204Z,95191.62
2019-04-25T22:21:11.899Z,95183.83
2019-04-25T22:24:08.926Z,95179.08
2019-04-25T22:26:50.923Z,95193.71
2019-04-25T22:29:41.959Z,95188.42
2019-04-25T22:32:36.282Z,95203.89
2019-04-25T22:35:25.968Z,95195.61
2019-04-25T22:38:13.574Z,95207.13
2019-04-25T22:41:01.597Z,95211.98
2019-04-25T22:43:53.406Z,95223.13
2019-04-25T22:46:44.402Z,95225.52
2019-04-25T22:49:31.603Z,95233.97
2019-04-25T22:52:19.336Z,95234.17
2019-04-25T22:55:08.258Z,95227.64
2019-04-25T22:57:55.952Z,95207.09
2019-04-25T23:00:43.885Z,95213.85
2019-04-25T23:03:37.536Z,95224.36
2019-04-25T23:06:24.924Z,95233.67
2019-04-25T23:09:12.288Z,95238.14
2019-04-25T23:11:59.907Z,95242.31
2019-04-25T23:14:47.694Z,95250.48
2019-04-25T23:17:35.512Z,95258.53
2019-04-25T23:20:23.801Z,95275.80
2019-04-25T23:23:11.949Z,95273.89
2019-04-25T23:26:07.934Z,95278.16
2019-04-25T23:28:57.798Z,95258.08
2019-04-25T23:31:45.588Z,95276.65
2019-04-25T23:34:33.680Z,95277.52
2019-04-25T23:37:21.344Z,95283.23
2019-04-25T23:40:09.547Z,95309.75
2019-04-25T23:42:56.952Z,95334.52
2019-04-25T23:45:44.744Z,95326.03
2019-04-25T23:48:32.565Z,95326.31
2019-04-25T23:51:20.600Z,95323.80
2019-04-25T23:54:08.911Z,95313.26
2019-04-25T23:56:56.710Z,95310.21
2019-04-25T23:59:44.714Z,95316.02
